createdAt,value
2022-08-26T00:00:27.166Z,21.20
2022-08-26T00:03:01.079Z,21.10
2022-08-26T00:05:35.299Z,21.10
2022-08-26T00:08:03.787Z,21.10
2022-08-26T00:10:38.010Z,21.10
2022-08-26T00:13:06.321Z,21.10
2022-08-26T00:15:40.107Z,21.10
2022-08-26T00:18:16.767Z,21.10
2022-08-26T00:20:57.091Z,21.10
2022-08-26T00:23:24.439Z,21.10
2022-08-26T00:26:05.329Z,21.00
2022-08-26T00:28:36.405Z,21.00
2022-08-26T00:31:11.308Z,21.00
2022-08-26T00:33:40.796Z,21.00
2022-08-26T00:36:20.254Z,21.00
2022-08-26T00:38:48.555Z,21.00
2022-08-26T00:41:22.385Z,20.90
2022-08-26T00:43:58.275Z,20.90
2022-08-26T00:46:39.043Z,20.90
2022-08-26T00:49:36.991Z,20.90
2022-08-26T00:52:13.078Z,20.80
2022-08-26T00:54:51.914Z,20.80
2022-08-26T00:57:21.864Z,20.80
2022-08-26T01:00:01.210Z,20.80
2022-08-26T01:02:29.528Z,20.80
2022-08-26T01:05:06.234Z,20.80
2022-08-26T01:07:34.849Z,20.80
2022-08-26T01:10:10.145Z,20.80
2022-08-26T01:12:50.128Z,20.80
2022-08-26T01:15:30.329Z,20.80
2022-08-26T01:18:07.003Z,20.80
2022-08-26T01:21:04.465Z,20.70
2022-08-26T01:23:40.854Z,20.70
2022-08-26T01:26:22.107Z,20.70
2022-08-26T01:28:58.093Z,20.70
2022-08-26T01:31:28.579Z,20.70
2022-08-26T01:34:07.184Z,20.70
2022-08-26T01:36:37.304Z,20.70
2022-08-26T01:39:07.159Z,20.70
2022-08-26T01:41:44.044Z,20.60
2022-08-26T01:44:22.943Z,20.60
2022-08-26T01:46:52.024Z,20.60
2022-08-26T01:49:28.461Z,20.60
2022-08-26T01:52:06.113Z,20.60
2022-08-26T01:54:34.223Z,20.60
2022-08-26T01:57:08.353Z,20.60
2022-08-26T01:59:42.139Z,20.50
2022-08-26T02:02:11.731Z,20.50
2022-08-26T02:04:49.046Z,20.40
2022-08-26T02:07:20.204Z,20.40
2022-08-26T02:09:56.083Z,20.40
2022-08-26T02:12:23.870Z,20.40
2022-08-26T02:15:01.934Z,20.50
2022-08-26T02:17:43.958Z,20.50
2022-08-26T02:20:20.193Z,20.60
2022-08-26T02:22:48.364Z,20.60
2022-08-26T02:25:29.527Z,20.70
2022-08-26T02:28:13.122Z,20.70
2022-08-26T02:30:41.494Z,20.70
2022-08-26T02:33:20.604Z,20.70
2022-08-26T02:35:56.435Z,20.70
2022-08-26T02:38:30.166Z,20.70
2022-08-26T02:41:05.288Z,20.70
2022-08-26T02:43:42.240Z,20.70
2022-08-26T02:46:21.489Z,20.70
2022-08-26T02:49:04.048Z,20.70
2022-08-26T02:51:38.119Z,20.70
2022-08-26T02:54:07.185Z,20.70
2022-08-26T02:56:41.128Z,20.70
2022-08-26T02:59:16.758Z,20.70
2022-08-26T03:01:52.944Z,20.70
2022-08-26T03:04:25.683Z,20.70
2022-08-26T03:07:00.143Z,20.70
2022-08-26T03:09:28.968Z,20.70
2022-08-26T03:12:02.902Z,20.70
2022-08-26T03:14:30.427Z,20.80
2022-08-26T03:17:04.049Z,20.80
2022-08-26T03:19:32.512Z,20.80
2022-08-26T03:22:09.172Z,20.80
2022-08-26T03:25:01.638Z,20.80
2022-08-26T03:27:37.547Z,20.80
2022-08-26T03:30:24.818Z,20.80
2022-08-26T03:33:00.109Z,20.80
2022-08-26T03:35:28.182Z,20.80
2022-08-26T03:37:56.020Z,20.80
2022-08-26T03:40:30.050Z,20.70
2022-08-26T03:42:57.362Z,20.70
2022-08-26T03:45:31.398Z,20.70
2022-08-26T03:48:05.200Z,20.70
2022-08-26T03:50:34.123Z,20.60
2022-08-26T03:53:13.219Z,20.60
2022-08-26T03:55:41.212Z,20.60
2022-08-26T03:58:15.097Z,20.60
2022-08-26T04:00:43.577Z,20.60
2022-08-26T04:03:19.228Z,20.60
2022-08-26T04:05:49.006Z,20.60
2022-08-26T04:08:23.107Z,20.60
2022-08-26T04:10:51.066Z,20.50
2022-08-26T04:13:25.087Z,20.50
2022-08-26T04:15:52.429Z,20.50
2022-08-26T04:18:28.483Z,20.50
2022-08-26T04:20:59.882Z,20.50
2022-08-26T04:23:34.348Z,20.50
2022-08-26T04:26:21.976Z,20.50
2022-08-26T04:28:56.227Z,20.50
2022-08-26T04:31:23.732Z,20.50
2022-08-26T04:33:58.147Z,20.50
2022-08-26T04:36:32.087Z,20.60
2022-08-26T04:39:07.231Z,20.60
2022-08-26T04:41:34.556Z,20.60
2022-08-26T04:44:12.804Z,20.60
2022-08-26T04:46:47.885Z,20.60
2022-08-26T04:49:23.472Z,20.70
2022-08-26T04:51:56.183Z,20.70
2022-08-26T04:54:30.187Z,20.70
2022-08-26T04:56:59.543Z,20.70
2022-08-26T04:59:39.127Z,20.60
2022-08-26T05:02:14.356Z,20.70
2022-08-26T05:04:44.162Z,20.70
2022-08-26T05:07:18.217Z,20.70
2022-08-26T05:09:47.209Z,20.80
2022-08-26T05:12:21.508Z,20.80
2022-08-26T05:14:48.752Z,20.80
2022-08-26T05:17:22.109Z,20.90
2022-08-26T05:19:57.132Z,21.00
2022-08-26T05:22:24.405Z,21.00
2022-08-26T05:25:15.312Z,21.00
2022-08-26T05:27:50.564Z,21.10
2022-08-26T05:30:25.657Z,21.10
2022-08-26T05:32:55.317Z,21.20
2022-08-26T05:35:30.677Z,21.20
2022-08-26T05:37:59.847Z,21.30
2022-08-26T05:40:34.175Z,21.30
2022-08-26T05:43:01.539Z,21.30
2022-08-26T05:45:43.542Z,21.40
2022-08-26T05:48:22.553Z,21.40
2022-08-26T05:50:53.467Z,21.50
2022-08-26T05:53:28.517Z,21.50
2022-08-26T05:55:56.972Z,21.50
2022-08-26T05:58:33.308Z,21.60
2022-08-26T06:01:02.167Z,21.60
2022-08-26T06:03:32.223Z,21.60
2022-08-26T06:06:14.904Z,21.70
2022-08-26T06:08:55.533Z,21.70
2022-08-26T06:11:33.637Z,21.80
2022-08-26T06:14:04.294Z,21.80
2022-08-26T06:16:42.092Z,21.80
2022-08-26T06:19:19.847Z,21.80
2022-08-26T06:21:55.014Z,21.80
2022-08-26T06:24:47.860Z,21.90
2022-08-26T06:27:32.682Z,21.90
2022-08-26T06:30:00.578Z,22.00
2022-08-26T06:32:34.505Z,22.00
2022-08-26T06:35:14.658Z,22.00
2022-08-26T06:37:43.702Z,22.00
2022-08-26T06:40:18.261Z,22.00
2022-08-26T06:42:53.230Z,22.00
2022-08-26T06:45:20.647Z,22.00
2022-08-26T06:47:54.153Z,22.00
2022-08-26T06:50:23.924Z,22.00
2022-08-26T06:53:00.218Z,22.00
2022-08-26T06:55:28.913Z,22.10
2022-08-26T06:58:07.023Z,22.10
2022-08-26T07:00:34.927Z,22.10
2022-08-26T07:03:09.229Z,22.10
2022-08-26T07:05:36.664Z,22.10
2022-08-26T07:08:11.951Z,22.20
2022-08-26T07:10:39.550Z,22.20
2022-08-26T07:13:15.289Z,22.20
2022-08-26T07:15:43.361Z,22.30
2022-08-26T07:18:17.229Z,22.30
2022-08-26T07:20:44.650Z,22.30
2022-08-26T07:23:19.117Z,22.30
2022-08-26T07:26:06.434Z,22.30
2022-08-26T07:28:41.186Z,22.40
2022-08-26T07:31:09.910Z,22.40
2022-08-26T07:33:45.293Z,22.50
2022-08-26T07:36:15.236Z,22.50
2022-08-26T07:38:51.552Z,22.50
2022-08-26T07:41:20.674Z,22.50
2022-08-26T07:43:55.643Z,22.50
2022-08-26T07:46:29.954Z,22.50
2022-08-26T07:49:06.186Z,22.50
2022-08-26T07:51:35.198Z,22.60
2022-08-26T07:54:12.551Z,22.60
2022-08-26T07:56:42.070Z,22.70
2022-08-26T07:59:19.783Z,22.70
2022-08-26T08:01:55.374Z,22.70
2022-08-26T08:04:33.299Z,22.80
2022-08-26T08:07:01.319Z,22.90
2022-08-26T08:09:38.318Z,23.00
2022-08-26T08:12:08.238Z,23.10
2022-08-26T08:14:49.269Z,23.20
2022-08-26T08:17:16.908Z,23.20
2022-08-26T08:19:54.505Z,23.40
2022-08-26T08:22:30.210Z,23.40
2022-08-26T08:24:57.814Z,23.50
2022-08-26T08:27:40.049Z,23.50
2022-08-26T08:30:22.814Z,23.50
2022-08-26T08:32:51.895Z,23.50
2022-08-26T08:35:28.181Z,23.50
2022-08-26T08:37:57.815Z,23.60
2022-08-26T08:40:33.239Z,23.60
2022-08-26T08:43:06.398Z,23.60
2022-08-26T08:45:47.114Z,23.60
2022-08-26T08:48:27.882Z,23.70
2022-08-26T08:51:06.224Z,23.70
2022-08-26T08:53:42.004Z,23.70
2022-08-26T08:56:20.332Z,23.80
2022-08-26T08:59:06.254Z,23.90
2022-08-26T09:01:40.426Z,24.00
2022-08-26T09:04:34.200Z,24.20
2022-08-26T09:07:02.907Z,24.20
2022-08-26T09:09:53.644Z,24.20
2022-08-26T09:12:29.818Z,24.20
2022-08-26T09:15:11.764Z,24.20
2022-08-26T09:18:00.566Z,24.20
2022-08-26T09:20:35.153Z,24.10
2022-08-26T09:23:04.327Z,24.10
2022-08-26T09:25:48.251Z,24.20
2022-08-26T09:28:26.532Z,24.20
2022-08-26T09:31:21.187Z,24.30
2022-08-26T09:34:10.372Z,24.40
2022-08-26T09:36:41.293Z,24.50
2022-08-26T09:39:37.447Z,24.60
2022-08-26T09:42:18.614Z,24.70
2022-08-26T09:45:07.054Z,24.90
2022-08-26T09:47:41.027Z,25.10
2022-08-26T09:50:19.437Z,25.30
2022-08-26T09:52:54.023Z,25.50
2022-08-26T09:55:23.016Z,25.60
2022-08-26T09:58:06.698Z,25.70
2022-08-26T10:00:38.576Z,25.80
2022-08-26T10:03:17.341Z,25.90
2022-08-26T10:06:04.294Z,26.00
2022-08-26T10:08:41.168Z,26.00
2022-08-26T10:11:25.459Z,26.00
2022-08-26T10:13:58.744Z,26.00
2022-08-26T10:16:40.000Z,26.00
2022-08-26T10:19:10.053Z,26.00
2022-08-26T10:21:49.499Z,26.00
2022-08-26T10:24:24.133Z,26.00
2022-08-26T10:27:05.322Z,26.00
2022-08-26T10:29:55.907Z,26.00
2022-08-26T10:32:43.779Z,26.00
2022-08-26T10:35:19.549Z,25.90
2022-08-26T10:37:48.840Z,25.90
2022-08-26T10:40:32.535Z,25.90
2022-08-26T10:43:11.017Z,25.90
2022-08-26T10:45:57.342Z,25.90
2022-08-26T10:48:35.813Z,26.00
2022-08-26T10:51:11.154Z,26.20
2022-08-26T10:53:44.745Z,26.40
2022-08-26T10:56:30.025Z,26.60
2022-08-26T10:59:02.469Z,26.90
2022-08-26T11:01:56.232Z,27.20
2022-08-26T11:04:35.987Z,27.60
2022-08-26T11:07:31.862Z,28.00
2022-08-26T11:10:02.533Z,28.30
2022-08-26T11:13:00.551Z,28.70
2022-08-26T11:15:31.005Z,29.00
2022-08-26T11:18:10.791Z,29.30
2022-08-26T11:20:51.386Z,29.50
2022-08-26T11:23:25.826Z,29.80
2022-08-26T11:26:04.135Z,29.90
2022-08-26T11:28:45.825Z,30.20
2022-08-26T11:31:33.298Z,30.30
2022-08-26T11:34:03.568Z,30.50
2022-08-26T11:36:43.850Z,30.40
2022-08-26T11:39:27.169Z,30.20
2022-08-26T11:42:03.125Z,30.10
2022-08-26T11:44:49.055Z,30.00
2022-08-26T11:47:25.605Z,30.10
2022-08-26T11:50:07.071Z,30.30
2022-08-26T11:52:42.114Z,30.40
2022-08-26T11:55:23.235Z,30.50
2022-08-26T11:58:00.711Z,30.60
2022-08-26T12:00:33.331Z,30.60
2022-08-26T12:03:09.191Z,30.70
2022-08-26T12:05:42.491Z,30.70
2022-08-26T12:08:18.317Z,30.80
2022-08-26T12:10:46.057Z,30.70
2022-08-26T12:13:31.099Z,30.70
2022-08-26T12:16:00.632Z,30.70
2022-08-26T12:18:37.035Z,30.80
2022-08-26T12:21:12.859Z,30.80
2022-08-26T12:23:52.193Z,31.00
2022-08-26T12:26:44.154Z,31.10
2022-08-26T12:29:35.255Z,31.10
2022-08-26T12:32:10.692Z,31.20
2022-08-26T12:34:46.912Z,31.30
2022-08-26T12:37:15.042Z,31.40
2022-08-26T12:39:51.228Z,31.50
2022-08-26T12:42:25.249Z,31.60
2022-08-26T12:45:03.863Z,31.70
2022-08-26T12:47:43.327Z,31.60
2022-08-26T12:50:11.319Z,31.60
2022-08-26T12:52:49.214Z,31.50
2022-08-26T12:55:27.249Z,31.50
2022-08-26T12:58:13.239Z,31.50
2022-08-26T13:00:50.160Z,31.60
2022-08-26T13:03:40.010Z,31.60
2022-08-26T13:06:25.119Z,31.60
2022-08-26T13:08:53.684Z,31.50
2022-08-26T13:11:22.529Z,31.50
2022-08-26T13:14:01.859Z,31.50
2022-08-26T13:16:35.601Z,31.60
2022-08-26T13:19:05.655Z,31.60
2022-08-26T13:21:51.197Z,31.70
2022-08-26T13:24:27.996Z,31.80
2022-08-26T13:27:08.398Z,31.80
2022-08-26T13:29:44.316Z,31.70
2022-08-26T13:32:19.333Z,31.70
2022-08-26T13:34:55.129Z,31.70
2022-08-26T13:37:35.227Z,31.70
2022-08-26T13:40:05.686Z,31.70
2022-08-26T13:42:49.623Z,31.80
2022-08-26T13:45:24.575Z,31.70
2022-08-26T13:47:52.650Z,31.70
2022-08-26T13:50:29.358Z,31.70
2022-08-26T13:52:57.082Z,31.60
2022-08-26T13:55:31.065Z,31.50
2022-08-26T13:58:10.376Z,31.50
2022-08-26T14:00:38.374Z,31.50
2022-08-26T14:03:13.482Z,31.50
2022-08-26T14:05:47.962Z,31.50
2022-08-26T14:08:15.102Z,31.50
2022-08-26T14:10:52.433Z,31.50
2022-08-26T14:13:19.909Z,31.50
2022-08-26T14:15:53.199Z,31.50
2022-08-26T14:18:25.694Z,31.40
2022-08-26T14:21:03.149Z,31.40
2022-08-26T14:23:30.320Z,31.30
2022-08-26T14:26:04.219Z,31.30
2022-08-26T14:28:45.249Z,31.20
2022-08-26T14:31:13.166Z,31.10
2022-08-26T14:33:47.749Z,31.00
2022-08-26T14:36:32.615Z,30.90
2022-08-26T14:39:10.409Z,30.80
2022-08-26T14:42:03.390Z,30.70
2022-08-26T14:44:32.349Z,30.60
2022-08-26T14:47:08.359Z,30.50
2022-08-26T14:49:42.349Z,30.40
2022-08-26T14:52:10.221Z,30.30
2022-08-26T14:54:44.310Z,30.20
2022-08-26T14:57:12.488Z,30.20
2022-08-26T14:59:52.299Z,30.10
2022-08-26T15:02:32.529Z,30.10
2022-08-26T15:05:09.298Z,30.00
2022-08-26T15:07:37.607Z,29.90
2022-08-26T15:10:12.387Z,29.90
2022-08-26T15:12:47.219Z,29.80
2022-08-26T15:15:22.371Z,29.70
2022-08-26T15:17:50.082Z,29.70
2022-08-26T15:20:24.154Z,29.60
2022-08-26T15:22:51.278Z,29.60
2022-08-26T15:25:25.092Z,29.50
2022-08-26T15:27:58.547Z,29.40
2022-08-26T15:30:32.213Z,29.30
2022-08-26T15:33:06.392Z,29.20
2022-08-26T15:35:51.689Z,29.10
2022-08-26T15:38:19.240Z,29.00
2022-08-26T15:40:53.485Z,28.90
2022-08-26T15:43:28.682Z,28.90
2022-08-26T15:46:03.287Z,28.80
2022-08-26T15:48:37.223Z,28.80
2022-08-26T15:51:04.747Z,28.70
2022-08-26T15:53:40.649Z,28.70
2022-08-26T15:56:14.184Z,28.60
2022-08-26T15:58:41.303Z,28.60
2022-08-26T16:01:18.149Z,28.50
2022-08-26T16:04:02.476Z,28.40
2022-08-26T16:06:31.667Z,28.40
2022-08-26T16:09:05.330Z,28.30
2022-08-26T16:11:33.455Z,28.20
2022-08-26T16:14:07.110Z,28.20
2022-08-26T16:16:37.070Z,28.10
2022-08-26T16:19:11.103Z,28.00
2022-08-26T16:21:45.083Z,27.90
2022-08-26T16:24:13.158Z,27.90
2022-08-26T16:26:54.230Z,27.90
2022-08-26T16:29:28.073Z,27.80
2022-08-26T16:32:02.229Z,27.80
2022-08-26T16:34:36.314Z,27.70
2022-08-26T16:37:03.594Z,27.70
2022-08-26T16:39:44.876Z,27.70
2022-08-26T16:42:12.689Z,27.70
2022-08-26T16:44:52.644Z,27.70
2022-08-26T16:47:20.023Z,27.70
2022-08-26T16:49:54.401Z,27.60
2022-08-26T16:52:21.629Z,27.60
2022-08-26T16:55:00.249Z,27.60
2022-08-26T16:57:27.620Z,27.60
2022-08-26T17:00:01.710Z,27.60
2022-08-26T17:02:29.164Z,27.50
2022-08-26T17:05:03.448Z,27.50
2022-08-26T17:07:31.101Z,27.40
2022-08-26T17:10:05.801Z,27.40
2022-08-26T17:12:35.448Z,27.30
2022-08-26T17:15:03.809Z,27.30
2022-08-26T17:17:38.359Z,27.20
2022-08-26T17:20:16.779Z,27.20
2022-08-26T17:22:45.319Z,27.10
2022-08-26T17:25:40.091Z,27.10
2022-08-26T17:28:14.511Z,27.00
2022-08-26T17:30:50.242Z,27.00
2022-08-26T17:33:21.966Z,26.90
2022-08-26T17:36:00.484Z,26.80
2022-08-26T17:38:29.404Z,26.80
2022-08-26T17:41:04.280Z,26.70
2022-08-26T17:43:32.080Z,26.70
2022-08-26T17:46:07.391Z,26.60
2022-08-26T17:48:35.690Z,26.50
2022-08-26T17:51:14.298Z,26.40
2022-08-26T17:53:48.294Z,26.40
2022-08-26T17:59:03.552Z,26.30
2022-08-26T18:01:38.186Z,26.30
2022-08-26T18:04:05.251Z,26.30
2022-08-26T18:06:40.168Z,26.20
2022-08-26T18:09:07.214Z,26.20
2022-08-26T18:11:41.071Z,26.10
2022-08-26T18:14:15.128Z,26.10
2022-08-26T18:16:42.198Z,26.10
2022-08-26T18:19:09.233Z,26.00
2022-08-26T18:21:57.344Z,26.00
2022-08-26T18:24:25.512Z,26.00
2022-08-26T18:26:59.116Z,26.00
2022-08-26T18:29:26.433Z,26.00
2022-08-26T18:32:00.092Z,25.90
2022-08-26T18:34:31.678Z,25.90
2022-08-26T18:37:20.479Z,25.90
2022-08-26T18:39:47.419Z,25.80
2022-08-26T18:42:21.138Z,25.80
2022-08-26T18:44:57.094Z,25.80
2022-08-26T18:47:24.130Z,25.70
2022-08-26T18:49:58.100Z,25.70
2022-08-26T18:52:25.148Z,25.60
2022-08-26T18:54:59.134Z,25.50
2022-08-26T19:03:06.308Z,25.20
2022-08-26T19:05:59.154Z,25.00
2022-08-26T19:08:26.699Z,24.70
2022-08-26T19:11:30.156Z,24.50
2022-08-26T19:14:22.920Z,24.30
2022-08-26T19:17:01.066Z,24.00
2022-08-26T19:19:28.454Z,23.90
2022-08-26T19:22:06.757Z,23.80
2022-08-26T19:24:35.346Z,23.70
2022-08-26T19:27:14.611Z,23.60
2022-08-26T19:29:49.138Z,23.60
2022-08-26T19:32:24.160Z,23.50
2022-08-26T19:34:58.102Z,23.40
2022-08-26T19:37:25.041Z,23.40
2022-08-26T19:39:58.154Z,23.40
2022-08-26T19:42:25.405Z,23.30
2022-08-26T19:45:24.499Z,23.30
2022-08-26T19:47:53.845Z,23.30
2022-08-26T19:50:28.159Z,23.20
2022-08-26T19:52:55.484Z,23.10
2022-08-26T19:55:22.999Z,23.00
2022-08-26T19:57:59.176Z,22.90
2022-08-26T20:00:27.204Z,22.90
2022-08-26T20:03:01.150Z,22.80
2022-08-26T20:05:35.325Z,22.80
2022-08-26T20:08:09.264Z,22.70
2022-08-26T20:10:50.129Z,22.70
2022-08-26T20:13:24.169Z,22.60
2022-08-26T20:15:51.112Z,22.60
2022-08-26T20:18:43.143Z,22.50
2022-08-26T20:21:33.335Z,22.50
2022-08-26T20:24:02.264Z,22.50
2022-08-26T20:26:37.219Z,22.40
2022-08-26T20:29:04.725Z,22.40
2022-08-26T20:31:31.866Z,22.30
2022-08-26T20:34:05.156Z,22.40
2022-08-26T20:36:32.900Z,22.40
2022-08-26T20:39:07.235Z,22.40
2022-08-26T20:41:34.329Z,22.50
2022-08-26T20:44:09.236Z,22.50
2022-08-26T20:46:36.639Z,22.60
2022-08-26T20:49:11.177Z,22.60
2022-08-26T20:51:38.153Z,22.60
2022-08-26T20:54:13.148Z,22.60
2022-08-26T20:56:40.214Z,22.60
2022-08-26T20:59:14.157Z,22.50
2022-08-26T21:01:42.496Z,22.50
2022-08-26T21:04:25.245Z,22.50
2022-08-26T21:06:59.312Z,22.50
2022-08-26T21:09:34.197Z,22.40
2022-08-26T21:12:01.897Z,22.40
2022-08-26T21:14:28.877Z,22.40
2022-08-26T21:17:03.156Z,22.40
2022-08-26T21:19:30.361Z,22.40
2022-08-26T21:22:04.169Z,22.40
2022-08-26T21:24:32.011Z,22.40
2022-08-26T21:27:06.233Z,22.40
2022-08-26T21:29:33.143Z,22.40
2022-08-26T21:32:07.237Z,22.40
2022-08-26T21:34:34.223Z,22.40
2022-08-26T21:37:13.340Z,22.40
2022-08-26T21:39:43.502Z,22.30
2022-08-26T21:42:17.198Z,22.30
2022-08-26T21:44:45.013Z,22.30
2022-08-26T21:47:27.182Z,22.30
2022-08-26T21:49:54.456Z,22.40
2022-08-26T21:52:21.666Z,22.40
2022-08-26T21:54:55.146Z,22.40
2022-08-26T21:57:29.215Z,22.40
2022-08-26T21:59:56.572Z,22.50
2022-08-26T22:02:30.265Z,22.50
2022-08-26T22:05:17.198Z,22.50
2022-08-26T22:07:51.258Z,22.50
2022-08-26T22:10:18.252Z,22.40
2022-08-26T22:12:52.232Z,22.40
2022-08-26T22:15:23.188Z,22.40
2022-08-26T22:17:57.197Z,22.40
2022-08-26T22:20:24.241Z,22.30
2022-08-26T22:22:58.293Z,22.30
2022-08-26T22:25:25.627Z,22.30
2022-08-26T22:27:52.662Z,22.30
2022-08-26T22:30:27.209Z,22.30
2022-08-26T22:33:01.138Z,22.30
2022-08-26T22:35:34.203Z,22.20
2022-08-26T22:38:07.226Z,22.20
2022-08-26T22:40:35.270Z,22.20
2022-08-26T22:43:02.858Z,22.20
2022-08-26T22:45:40.186Z,22.20
2022-08-26T22:48:07.248Z,22.10
2022-08-26T22:50:41.182Z,22.00
2022-08-26T22:53:08.247Z,22.00
2022-08-26T22:55:42.206Z,22.00
2022-08-26T22:58:09.712Z,22.00
2022-08-26T23:00:44.226Z,22.00
2022-08-26T23:03:11.491Z,21.90
2022-08-26T23:05:53.267Z,21.90
2022-08-26T23:08:21.437Z,21.90
2022-08-26T23:10:56.228Z,21.90
2022-08-26T23:13:30.277Z,21.90
2022-08-26T23:16:08.340Z,21.90
2022-08-26T23:18:42.242Z,21.90
2022-08-26T23:21:09.381Z,21.90
2022-08-26T23:23:43.281Z,21.80
2022-08-26T23:26:18.304Z,21.80
2022-08-26T23:28:45.612Z,21.80
2022-08-26T23:31:20.289Z,21.80
2022-08-26T23:34:12.247Z,21.80
2022-08-26T23:36:39.322Z,21.80
2022-08-26T23:39:13.372Z,21.80
2022-08-26T23:41:40.397Z,21.80
2022-08-26T23:44:14.286Z,21.70
2022-08-26T23:46:41.374Z,21.70
2022-08-26T23:49:15.262Z,21.70
2022-08-26T23:52:00.881Z,21.70
2022-08-26T23:54:34.277Z,21.60
2022-08-26T23:57:01.361Z,21.60
2022-08-26T23:59:35.281Z,21.60
